createdAt,value
2017-01-22T00:00:02.660Z,-8.76
2017-01-22T00:00:32.376Z,-8.78
2017-01-22T00:01:02.409Z,-8.82
2017-01-22T00:01:32.423Z,-8.88
2017-01-22T00:02:02.608Z,-8.84
2017-01-22T00:02:32.489Z,-8.89
2017-01-22T00:03:02.719Z,-8.91
2017-01-22T00:03:32.546Z,-8.88
2017-01-22T00:04:02.773Z,-8.86
2017-01-22T00:04:32.593Z,-8.88
2017-01-22T00:05:02.814Z,-8.85
2017-01-22T00:05:32.651Z,-8.94
2017-01-22T00:06:03.036Z,-8.92
2017-01-22T00:06:32.695Z,-8.94
2017-01-22T00:07:02.831Z,-8.94
2017-01-22T00:07:32.751Z,-8.86
2017-01-22T00:08:03.029Z,-8.86
2017-01-22T00:08:32.801Z,-8.92
2017-01-22T00:09:03.123Z,-8.99
2017-01-22T00:09:32.868Z,-8.91
2017-01-22T00:10:03.038Z,-8.84
2017-01-22T00:10:32.916Z,-8.99
2017-01-22T00:11:03.144Z,-8.99
2017-01-22T00:11:32.971Z,-8.84
2017-01-22T00:12:02.993Z,-8.92
2017-01-22T00:12:33.030Z,-8.91
2017-01-22T00:13:03.056Z,-9.03
2017-01-22T00:13:33.069Z,-8.91
2017-01-22T00:14:03.112Z,-8.97
2017-01-22T00:14:33.136Z,-9.03
2017-01-22T00:15:03.268Z,-9.07
2017-01-22T00:15:33.188Z,-9.07
2017-01-22T00:16:03.504Z,-9.05
2017-01-22T00:16:33.240Z,-9.03
2017-01-22T00:17:03.490Z,-9.09
2017-01-22T00:17:33.289Z,-9.03
2017-01-22T00:18:03.463Z,-9.12
2017-01-22T00:18:33.341Z,-9.17
2017-01-22T00:19:03.426Z,-9.12
2017-01-22T00:19:33.394Z,-9.2
2017-01-22T00:20:03.421Z,-9.17
2017-01-22T00:20:33.444Z,-9.16
2017-01-22T00:21:03.479Z,-9.12
2017-01-22T00:21:33.503Z,-9.12
2017-01-22T00:22:03.583Z,-9.12
2017-01-22T00:22:33.556Z,-9.24
2017-01-22T00:23:03.828Z,-9.21
2017-01-22T00:23:33.608Z,-9.18
2017-01-22T00:24:03.637Z,-9.16
2017-01-22T00:24:33.663Z,-9.17
2017-01-22T00:25:03.838Z,-9.24
2017-01-22T00:25:33.750Z,-9.2
2017-01-22T00:26:03.791Z,-9.14
2017-01-22T00:26:33.764Z,-9.26
2017-01-22T00:27:03.812Z,-9.21
2017-01-22T00:27:33.834Z,-9.16
2017-01-22T00:28:03.855Z,-9.17
2017-01-22T00:28:33.878Z,-9.18
2017-01-22T00:29:03.908Z,-9.12
2017-01-22T00:29:33.929Z,-9.1
2017-01-22T00:30:03.960Z,-9.16
2017-01-22T00:30:33.981Z,-9.23
2017-01-22T00:31:04.009Z,-9.18
2017-01-22T00:31:34.037Z,-9.21
2017-01-22T00:32:04.064Z,-9.18
2017-01-22T00:32:34.090Z,-9.21
2017-01-22T00:33:04.116Z,-9.27
2017-01-22T00:33:34.146Z,-9.16
2017-01-22T00:34:04.170Z,-9.23
2017-01-22T00:34:34.198Z,-9.26
2017-01-22T00:35:04.225Z,-9.18
2017-01-22T00:35:34.258Z,-9.24
2017-01-22T00:36:04.274Z,-9.17
2017-01-22T00:36:34.317Z,-9.27
2017-01-22T00:37:04.330Z,-9.2
2017-01-22T00:37:34.355Z,-9.2
2017-01-22T00:38:04.381Z,-9.18
2017-01-22T00:38:34.416Z,-9.26
2017-01-22T00:39:04.440Z,-9.3
2017-01-22T00:39:34.472Z,-9.27
2017-01-22T00:40:04.496Z,-9.27
2017-01-22T00:40:34.518Z,-9.3
2017-01-22T00:41:04.541Z,-9.35
2017-01-22T00:41:34.572Z,-9.31
2017-01-22T00:42:04.595Z,-9.28
2017-01-22T00:42:34.621Z,-9.31
2017-01-22T00:43:04.650Z,-9.28
2017-01-22T00:43:34.673Z,-9.28
2017-01-22T00:44:04.700Z,-9.28
2017-01-22T00:44:34.730Z,-9.26
2017-01-22T00:45:04.766Z,-9.26
2017-01-22T00:45:34.785Z,-9.27
2017-01-22T00:46:04.806Z,-9.23
2017-01-22T00:46:34.835Z,-9.27
2017-01-22T00:47:04.859Z,-9.26
2017-01-22T00:47:34.891Z,-9.26
2017-01-22T00:48:04.915Z,-9.27
2017-01-22T00:48:34.945Z,-9.2
2017-01-22T00:49:04.972Z,-9.21
2017-01-22T00:49:35.001Z,-9.24
2017-01-22T00:50:05.020Z,-9.26
2017-01-22T00:50:35.049Z,-9.27
2017-01-22T00:51:05.077Z,-9.28
2017-01-22T00:51:35.108Z,-9.26
2017-01-22T00:52:05.135Z,-9.16
2017-01-22T00:52:35.155Z,-9.28
2017-01-22T00:53:05.183Z,-9.24
2017-01-22T00:53:35.215Z,-9.27
2017-01-22T00:54:05.242Z,-9.2
2017-01-22T00:54:35.265Z,-9.21
2017-01-22T00:55:05.292Z,-9.2
2017-01-22T00:55:35.353Z,-9.26
2017-01-22T00:56:05.345Z,-9.2
2017-01-22T00:56:35.365Z,-9.27
2017-01-22T00:57:05.396Z,-9.28
2017-01-22T00:57:35.425Z,-9.18
2017-01-22T00:58:05.473Z,-9.3
2017-01-22T00:58:35.476Z,-9.24
2017-01-22T00:59:05.514Z,-9.27
2017-01-22T00:59:35.536Z,-9.3
2017-01-22T01:00:05.586Z,-9.3
2017-01-22T01:00:35.584Z,-9.3
2017-01-22T01:01:05.613Z,-9.28
2017-01-22T01:01:35.645Z,-9.36
2017-01-22T01:02:05.668Z,-9.41
2017-01-22T01:02:35.689Z,-9.43
2017-01-22T01:03:05.716Z,-9.43
2017-01-22T01:03:35.747Z,-9.46
2017-01-22T01:04:05.779Z,-9.38
2017-01-22T01:04:35.804Z,-9.39
2017-01-22T01:05:05.830Z,-9.41
2017-01-22T01:05:35.852Z,-9.45
2017-01-22T01:06:05.877Z,-9.46
2017-01-22T01:06:35.911Z,-9.45
2017-01-22T01:07:05.936Z,-9.47
2017-01-22T01:07:35.952Z,-9.64
2017-01-22T01:08:05.985Z,-9.6
2017-01-22T01:08:36.161Z,-9.61
2017-01-22T01:09:06.040Z,-9.68
2017-01-22T01:09:36.066Z,-9.66
2017-01-22T01:10:06.242Z,-9.75
2017-01-22T01:10:36.115Z,-9.79
2017-01-22T01:11:06.149Z,-9.78
2017-01-22T01:11:36.174Z,-9.82
2017-01-22T01:12:06.199Z,-9.77
2017-01-22T01:12:36.223Z,-9.81
2017-01-22T01:13:06.253Z,-9.82
2017-01-22T01:13:36.280Z,-9.88
2017-01-22T01:14:06.301Z,-9.87
2017-01-22T01:14:36.332Z,-9.79
2017-01-22T01:15:06.355Z,-9.77
2017-01-22T01:15:36.386Z,-9.79
2017-01-22T01:16:06.407Z,-9.75
2017-01-22T01:16:36.443Z,-9.74
2017-01-22T01:17:06.467Z,-9.85
2017-01-22T01:17:36.492Z,-9.78
2017-01-22T01:18:06.522Z,-9.77
2017-01-22T01:18:36.543Z,-9.78
2017-01-22T01:19:06.568Z,-9.84
2017-01-22T01:19:36.603Z,-9.77
2017-01-22T01:20:06.621Z,-9.79
2017-01-22T01:20:36.651Z,-9.78
2017-01-22T01:21:06.673Z,-9.77
2017-01-22T01:21:36.705Z,-9.85
2017-01-22T01:22:06.729Z,-9.82
2017-01-22T01:22:36.763Z,-9.68
2017-01-22T01:23:06.779Z,-9.66
2017-01-22T01:23:36.810Z,-9.7
2017-01-22T01:24:06.842Z,-9.79
2017-01-22T01:24:36.861Z,-9.67
2017-01-22T01:25:06.887Z,-9.63
2017-01-22T01:25:36.917Z,-9.63
2017-01-22T01:26:06.942Z,-9.72
2017-01-22T01:26:36.967Z,-9.78
2017-01-22T01:27:06.995Z,-9.79
2017-01-22T01:27:37.018Z,-9.68
2017-01-22T01:28:07.048Z,-9.67
2017-01-22T01:28:37.076Z,-9.72
2017-01-22T01:29:07.099Z,-9.63
2017-01-22T01:29:37.130Z,-9.72
2017-01-22T01:30:07.158Z,-9.67
2017-01-22T01:30:37.177Z,-9.72
2017-01-22T01:31:07.208Z,-9.68
2017-01-22T01:31:37.234Z,-9.72
2017-01-22T01:32:07.267Z,-9.79
2017-01-22T01:32:37.287Z,-9.66
2017-01-22T01:33:07.313Z,-9.67
2017-01-22T01:33:37.345Z,-9.74
2017-01-22T01:34:07.371Z,-9.7
2017-01-22T01:34:37.393Z,-9.7
2017-01-22T01:35:07.419Z,-9.64
2017-01-22T01:35:37.444Z,-9.68
2017-01-22T01:36:07.487Z,-9.63
2017-01-22T01:36:37.501Z,-9.67
2017-01-22T01:37:07.554Z,-9.7
2017-01-22T01:37:37.550Z,-9.77
2017-01-22T01:38:07.578Z,-9.66
2017-01-22T01:38:37.609Z,-9.68
2017-01-22T01:39:07.633Z,-9.66
2017-01-22T01:39:37.655Z,-9.56
2017-01-22T01:40:07.686Z,-9.58
2017-01-22T01:40:37.720Z,-9.5
2017-01-22T01:41:07.768Z,-9.61
2017-01-22T01:41:37.761Z,-9.64
2017-01-22T01:42:07.792Z,-9.6
2017-01-22T01:42:37.820Z,-9.56
2017-01-22T01:43:07.869Z,-9.56
2017-01-22T01:43:37.878Z,-9.58
2017-01-22T01:44:07.897Z,-9.61
2017-01-22T01:44:37.932Z,-9.57
2017-01-22T01:45:07.955Z,-9.56
2017-01-22T01:45:37.975Z,-9.61
2017-01-22T01:46:08.005Z,-9.54
2017-01-22T01:46:38.028Z,-9.53
2017-01-22T01:47:08.061Z,-9.53
2017-01-22T01:47:38.095Z,-9.49
2017-01-22T01:48:08.112Z,-9.49
2017-01-22T01:48:38.138Z,-9.61
2017-01-22T01:49:08.163Z,-9.49
2017-01-22T01:49:38.194Z,-9.57
2017-01-22T01:50:08.216Z,-9.6
2017-01-22T01:50:38.238Z,-9.6
2017-01-22T01:51:08.267Z,-9.56
2017-01-22T01:51:38.296Z,-9.61
2017-01-22T01:52:08.322Z,-9.56
2017-01-22T01:52:38.352Z,-9.5
2017-01-22T01:53:08.380Z,-9.54
2017-01-22T01:53:38.406Z,-9.5
2017-01-22T01:54:08.432Z,-9.6
2017-01-22T01:54:38.461Z,-9.63
2017-01-22T01:55:08.487Z,-9.5
2017-01-22T01:55:38.507Z,-9.66
2017-01-22T01:56:08.536Z,-9.61
2017-01-22T01:56:38.563Z,-9.61
2017-01-22T01:57:08.589Z,-9.66
2017-01-22T01:57:38.613Z,-9.64
2017-01-22T01:58:08.645Z,-9.68
2017-01-22T01:58:38.668Z,-9.67
2017-01-22T01:59:08.698Z,-9.7
2017-01-22T01:59:38.730Z,-9.64
2017-01-22T02:00:08.745Z,-9.7
2017-01-22T02:00:38.768Z,-9.74
2017-01-22T02:01:08.807Z,-9.67
2017-01-22T02:01:38.831Z,-9.74
2017-01-22T02:02:08.856Z,-9.67
2017-01-22T02:02:38.880Z,-9.67
2017-01-22T02:03:08.911Z,-9.68
2017-01-22T02:03:38.935Z,-9.7
2017-01-22T02:04:08.957Z,-9.63
2017-01-22T02:04:39.000Z,-9.58
2017-01-22T02:05:09.026Z,-9.58
2017-01-22T02:05:39.048Z,-9.57
2017-01-22T02:06:09.071Z,-9.66
2017-01-22T02:06:39.098Z,-9.61
2017-01-22T02:07:09.120Z,-9.61
2017-01-22T02:07:39.148Z,-9.56
2017-01-22T02:08:09.178Z,-9.64
2017-01-22T02:08:39.214Z,-9.53
2017-01-22T02:09:09.233Z,-9.54
2017-01-22T02:09:39.255Z,-9.53
2017-01-22T02:10:09.284Z,-9.54
2017-01-22T02:10:39.309Z,-9.57
2017-01-22T02:11:09.341Z,-9.58
2017-01-22T02:11:39.369Z,-9.53
2017-01-22T02:12:09.388Z,-9.54
2017-01-22T02:12:39.414Z,-9.49
2017-01-22T02:13:09.442Z,-9.54
2017-01-22T02:13:39.468Z,-9.5
2017-01-22T02:14:09.492Z,-9.47
2017-01-22T02:14:39.521Z,-9.53
2017-01-22T02:15:09.546Z,-9.43
2017-01-22T02:15:39.585Z,-9.49
2017-01-22T02:16:09.596Z,-9.41
2017-01-22T02:16:39.633Z,-9.43
2017-01-22T02:17:09.657Z,-9.43
2017-01-22T02:17:39.685Z,-9.38
2017-01-22T02:18:09.710Z,-9.43
2017-01-22T02:18:39.737Z,-9.34
2017-01-22T02:19:09.763Z,-9.38
2017-01-22T02:19:39.795Z,-9.34
2017-01-22T02:20:09.814Z,-9.34
2017-01-22T02:20:39.838Z,-9.3
2017-01-22T02:21:09.862Z,-9.35
2017-01-22T02:21:39.905Z,-9.28
2017-01-22T02:22:09.917Z,-9.26
2017-01-22T02:22:39.956Z,-9.24
2017-01-22T02:23:09.975Z,-9.2
2017-01-22T02:23:40.000Z,-9.21
2017-01-22T02:24:10.024Z,-9.27
2017-01-22T02:24:40.052Z,-9.16
2017-01-22T02:25:10.086Z,-9.27
2017-01-22T02:25:40.102Z,-9.18
2017-01-22T02:26:10.141Z,-9.16
2017-01-22T02:26:40.167Z,-9.18
2017-01-22T02:27:10.187Z,-9.14
2017-01-22T02:27:40.223Z,-9.06
2017-01-22T02:28:10.237Z,-9.06
2017-01-22T02:28:40.273Z,-9.14
2017-01-22T02:29:10.291Z,-9.05
2017-01-22T02:29:40.324Z,-9.1
2017-01-22T02:30:10.341Z,-9.06
2017-01-22T02:30:40.375Z,-9.06
2017-01-22T02:31:10.404Z,-9.07
2017-01-22T02:31:40.429Z,-9.05
2017-01-22T02:32:10.454Z,-9.1
2017-01-22T02:32:40.483Z,-9.02
2017-01-22T02:33:10.514Z,-9.06
2017-01-22T02:33:40.540Z,-9.05
2017-01-22T02:34:10.570Z,-9
2017-01-22T02:34:40.591Z,-9.07
2017-01-22T02:35:10.613Z,-9.09
2017-01-22T02:35:40.643Z,-9
2017-01-22T02:36:10.670Z,-9.14
2017-01-22T02:36:40.699Z,-9.06
2017-01-22T02:37:10.732Z,-9.07
2017-01-22T02:37:40.746Z,-9.06
2017-01-22T02:38:10.781Z,-9.06
2017-01-22T02:38:40.808Z,-9.1
2017-01-22T02:39:10.832Z,-9.03
2017-01-22T02:39:40.864Z,-8.99
2017-01-22T02:40:10.880Z,-9
2017-01-22T02:40:40.907Z,-8.97
2017-01-22T02:41:10.936Z,-8.97
2017-01-22T02:41:40.961Z,-8.94
2017-01-22T02:42:10.991Z,-9.02
2017-01-22T02:42:41.019Z,-8.92
2017-01-22T02:43:11.050Z,-8.96
2017-01-22T02:43:41.070Z,-8.92
2017-01-22T02:44:11.099Z,-8.91
2017-01-22T02:44:41.127Z,-9.03
2017-01-22T02:45:11.151Z,-8.92
2017-01-22T02:45:41.199Z,-8.97
2017-01-22T02:46:11.204Z,-8.97
2017-01-22T02:46:41.226Z,-8.97
2017-01-22T02:47:11.267Z,-8.97
2017-01-22T02:47:41.287Z,-9
2017-01-22T02:48:11.307Z,-8.97
2017-01-22T02:48:41.335Z,-8.97
2017-01-22T02:49:11.513Z,-8.97
2017-01-22T02:49:41.388Z,-8.94
2017-01-22T02:50:11.419Z,-8.94
2017-01-22T02:50:41.448Z,-8.92
2017-01-22T02:51:11.477Z,-9.02
2017-01-22T02:51:41.496Z,-8.99
2017-01-22T02:52:11.524Z,-8.96
2017-01-22T02:52:41.552Z,-8.94
2017-01-22T02:53:11.585Z,-8.88
2017-01-22T02:53:41.633Z,-8.94
2017-01-22T02:54:11.633Z,-8.96
2017-01-22T02:54:41.657Z,-9.02
2017-01-22T02:55:11.703Z,-8.99
2017-01-22T02:55:41.715Z,-8.99
2017-01-22T02:56:11.747Z,-8.99
2017-01-22T02:56:41.772Z,-9.03
2017-01-22T02:57:11.789Z,-8.97
2017-01-22T02:57:41.821Z,-9.06
2017-01-22T02:58:11.846Z,-8.99
2017-01-22T02:58:41.875Z,-9.09
2017-01-22T02:59:11.913Z,-9.07
2017-01-22T02:59:41.932Z,-9.06
2017-01-22T03:00:11.955Z,-9
2017-01-22T03:00:41.985Z,-9.07
2017-01-22T03:01:12.007Z,-9.03
2017-01-22T03:01:42.037Z,-8.97
2017-01-22T03:02:12.062Z,-9
2017-01-22T03:02:42.085Z,-8.91
2017-01-22T03:03:12.117Z,-9.03
2017-01-22T03:03:42.143Z,-9.02
2017-01-22T03:04:12.173Z,-8.99
2017-01-22T03:04:42.193Z,-8.94
2017-01-22T03:05:12.221Z,-8.92
2017-01-22T03:05:42.256Z,-8.97
2017-01-22T03:06:12.277Z,-8.99
2017-01-22T03:06:42.332Z,-9.02
2017-01-22T03:07:12.329Z,-9.07
2017-01-22T03:07:42.357Z,-9.06
2017-01-22T03:08:12.377Z,-9.03
2017-01-22T03:08:42.407Z,-9.03
2017-01-22T03:09:12.449Z,-9.12
2017-01-22T03:09:42.460Z,-9.12
2017-01-22T03:10:12.495Z,-9.06
2017-01-22T03:10:42.524Z,-9.14
2017-01-22T03:11:12.546Z,-9.14
2017-01-22T03:11:42.574Z,-9.12
2017-01-22T03:12:12.598Z,-9.16
2017-01-22T03:12:42.622Z,-9.1
2017-01-22T03:13:12.648Z,-9.07
2017-01-22T03:13:42.668Z,-9.07
2017-01-22T03:14:12.710Z,-9.16
2017-01-22T03:14:42.727Z,-9.14
2017-01-22T03:15:12.759Z,-9.06
2017-01-22T03:15:42.787Z,-9.09
2017-01-22T03:16:12.811Z,-9.2
2017-01-22T03:16:42.842Z,-9.06
2017-01-22T03:17:12.865Z,-9.12
2017-01-22T03:17:42.888Z,-9.14
2017-01-22T03:18:12.922Z,-9.14
2017-01-22T03:18:42.947Z,-9.05
2017-01-22T03:19:12.974Z,-9.2
2017-01-22T03:19:42.999Z,-9.07
2017-01-22T03:20:13.017Z,-9.14
2017-01-22T03:20:43.054Z,-9.16
2017-01-22T03:21:13.078Z,-9.07
2017-01-22T03:21:43.109Z,-9.05
2017-01-22T03:22:13.131Z,-9.05
2017-01-22T03:22:43.160Z,-9.2
2017-01-22T03:23:13.187Z,-9.16
2017-01-22T03:23:43.212Z,-9.17
2017-01-22T03:24:13.245Z,-9.2
2017-01-22T03:24:43.266Z,-9.18
2017-01-22T03:25:13.295Z,-9.16
2017-01-22T03:25:43.321Z,-9.16
2017-01-22T03:26:13.353Z,-9.16
2017-01-22T03:26:43.371Z,-9.28
2017-01-22T03:27:13.407Z,-9.18
2017-01-22T03:27:43.427Z,-9.28
2017-01-22T03:28:13.471Z,-9.23
2017-01-22T03:28:43.476Z,-9.18
2017-01-22T03:29:13.510Z,-9.23
2017-01-22T03:29:43.531Z,-9.27
2017-01-22T03:30:13.566Z,-9.24
2017-01-22T03:30:43.614Z,-9.24
2017-01-22T03:31:13.642Z,-9.24
2017-01-22T03:31:43.642Z,-9.24
2017-01-22T03:32:13.666Z,-9.26
2017-01-22T03:32:43.697Z,-9.21
2017-01-22T03:33:13.714Z,-9.26
2017-01-22T03:33:43.746Z,-9.3
2017-01-22T03:34:13.765Z,-9.27
2017-01-22T03:34:43.799Z,-9.28
2017-01-22T03:35:13.821Z,-9.35
2017-01-22T03:35:43.852Z,-9.28
2017-01-22T03:36:13.876Z,-9.28
2017-01-22T03:36:43.912Z,-9.31
2017-01-22T03:37:13.952Z,-9.3
2017-01-22T03:37:43.958Z,-9.36
2017-01-22T03:38:13.981Z,-9.36
2017-01-22T03:38:44.007Z,-9.46
2017-01-22T03:39:14.043Z,-9.38
2017-01-22T03:39:44.061Z,-9.47
2017-01-22T03:40:14.096Z,-9.38
2017-01-22T03:40:44.124Z,-9.43
2017-01-22T03:41:14.141Z,-9.46
2017-01-22T03:41:44.166Z,-9.5
2017-01-22T03:42:14.198Z,-9.47
2017-01-22T03:42:44.229Z,-9.53
2017-01-22T03:43:14.248Z,-9.45
2017-01-22T03:43:44.287Z,-9.53
2017-01-22T03:44:14.304Z,-9.54
2017-01-22T03:44:44.332Z,-9.46
2017-01-22T03:45:14.364Z,-9.54
2017-01-22T03:45:44.386Z,-9.45
2017-01-22T03:46:14.410Z,-9.53
2017-01-22T03:46:44.435Z,-9.5
2017-01-22T03:47:14.463Z,-9.47
2017-01-22T03:47:44.492Z,-9.53
2017-01-22T03:48:14.517Z,-9.56
2017-01-22T03:48:44.540Z,-9.64
2017-01-22T03:49:14.571Z,-9.56
2017-01-22T03:49:44.590Z,-9.6
2017-01-22T03:50:14.615Z,-9.54
2017-01-22T03:50:44.650Z,-9.64
2017-01-22T03:51:14.679Z,-9.63
2017-01-22T03:51:44.699Z,-9.58
2017-01-22T03:52:14.731Z,-9.74
2017-01-22T03:52:44.761Z,-9.67
2017-01-22T03:53:14.784Z,-9.66
2017-01-22T03:53:44.809Z,-9.63
2017-01-22T03:54:14.849Z,-9.66
2017-01-22T03:54:44.864Z,-9.72
2017-01-22T03:55:14.888Z,-9.66
2017-01-22T03:55:44.918Z,-9.7
2017-01-22T03:56:14.946Z,-9.72
2017-01-22T03:56:44.970Z,-9.84
2017-01-22T03:57:15.020Z,-9.66
2017-01-22T03:57:45.017Z,-9.74
2017-01-22T03:58:15.046Z,-9.81
2017-01-22T03:58:45.081Z,-9.78
2017-01-22T03:59:15.107Z,-9.79
2017-01-22T03:59:45.130Z,-9.81
2017-01-22T04:00:15.149Z,-9.74
2017-01-22T04:00:45.179Z,-9.79
2017-01-22T04:01:15.206Z,-9.78
2017-01-22T04:01:45.233Z,-9.81
2017-01-22T04:02:15.262Z,-9.68
2017-01-22T04:02:45.292Z,-9.66
2017-01-22T04:03:15.315Z,-9.74
2017-01-22T04:03:45.339Z,-9.74
2017-01-22T04:04:15.367Z,-9.66
2017-01-22T04:04:45.397Z,-9.72
2017-01-22T04:05:15.423Z,-9.61
2017-01-22T04:05:45.455Z,-9.63
2017-01-22T04:06:15.476Z,-9.67
2017-01-22T04:06:45.501Z,-9.64
2017-01-22T04:07:15.527Z,-9.67
2017-01-22T04:07:45.551Z,-9.7
2017-01-22T04:08:15.580Z,-9.7
2017-01-22T04:08:45.608Z,-9.67
2017-01-22T04:09:15.636Z,-9.7
2017-01-22T04:09:45.658Z,-9.63
2017-01-22T04:10:15.683Z,-9.67
2017-01-22T04:10:45.704Z,-9.64
2017-01-22T04:11:16.035Z,-9.64
2017-01-22T04:11:45.766Z,-9.66
2017-01-22T04:12:15.795Z,-9.81
2017-01-22T04:12:45.823Z,-9.61
2017-01-22T04:13:15.847Z,-9.72
2017-01-22T04:13:45.874Z,-9.7
2017-01-22T04:14:15.896Z,-9.68
2017-01-22T04:14:45.927Z,-9.61
2017-01-22T04:15:15.962Z,-9.7
2017-01-22T04:15:45.979Z,-9.63
2017-01-22T04:16:16.001Z,-9.66
2017-01-22T04:16:46.028Z,-9.67
2017-01-22T04:17:16.055Z,-9.67
2017-01-22T04:17:46.087Z,-9.74
2017-01-22T04:18:16.113Z,-9.64
2017-01-22T04:18:46.145Z,-9.57
2017-01-22T04:19:16.193Z,-9.64
2017-01-22T04:19:46.191Z,-9.6
2017-01-22T04:20:16.218Z,-9.58
2017-01-22T04:20:46.274Z,-9.61
2017-01-22T04:21:16.273Z,-9.64
2017-01-22T04:21:46.297Z,-9.61
2017-01-22T04:22:16.322Z,-9.6
2017-01-22T04:22:46.352Z,-9.56
2017-01-22T04:23:16.375Z,-9.6
2017-01-22T04:23:46.409Z,-9.58
2017-01-22T04:24:16.453Z,-9.49
2017-01-22T04:24:46.454Z,-9.53
2017-01-22T04:25:16.481Z,-9.5
2017-01-22T04:25:46.510Z,-9.45
2017-01-22T04:26:16.549Z,-9.46
2017-01-22T04:26:46.567Z,-9.43
2017-01-22T04:27:16.596Z,-9.45
2017-01-22T04:27:46.620Z,-9.43
2017-01-22T04:28:16.641Z,-9.45
2017-01-22T04:28:46.667Z,-9.46
2017-01-22T04:29:16.695Z,-9.45
2017-01-22T04:29:46.724Z,-9.5
2017-01-22T04:30:16.747Z,-9.49
2017-01-22T04:30:46.777Z,-9.49
2017-01-22T04:31:16.804Z,-9.36
2017-01-22T04:31:46.828Z,-9.46
2017-01-22T04:32:16.861Z,-9.47
2017-01-22T04:32:46.884Z,-9.38
2017-01-22T04:33:16.916Z,-9.49
2017-01-22T04:33:46.941Z,-9.41
2017-01-22T04:34:16.963Z,-9.47
2017-01-22T04:34:46.987Z,-9.46
2017-01-22T04:35:17.017Z,-9.45
2017-01-22T04:35:47.044Z,-9.47
2017-01-22T04:36:17.075Z,-9.46
2017-01-22T04:36:48.100Z,-9.46
2017-01-22T04:37:17.117Z,-9.39
2017-01-22T04:37:47.156Z,-9.45
2017-01-22T04:38:17.341Z,-9.39
2017-01-22T04:38:47.205Z,-9.43
2017-01-22T04:39:17.228Z,-9.3
2017-01-22T04:39:47.261Z,-9.36
2017-01-22T04:40:17.287Z,-9.28
2017-01-22T04:40:47.312Z,-9.28
2017-01-22T04:41:17.339Z,-9.24
2017-01-22T04:41:47.365Z,-9.28
2017-01-22T04:42:17.388Z,-9.27
2017-01-22T04:42:47.422Z,-9.24
2017-01-22T04:43:17.448Z,-9.18
2017-01-22T04:43:47.471Z,-9.17
2017-01-22T04:44:17.495Z,-9.2
2017-01-22T04:44:47.529Z,-9.21
2017-01-22T04:45:17.549Z,-9.12
2017-01-22T04:45:47.577Z,-9.09
2017-01-22T04:46:17.615Z,-9.14
2017-01-22T04:46:47.632Z,-9.12
2017-01-22T04:47:17.657Z,-9.18
2017-01-22T04:47:47.686Z,-9.18
2017-01-22T04:48:17.711Z,-9.12
2017-01-22T04:48:47.736Z,-9.12
2017-01-22T04:49:17.781Z,-9.16
2017-01-22T04:49:47.795Z,-9.26
2017-01-22T04:50:17.820Z,-9.2
2017-01-22T04:50:47.846Z,-9.14
2017-01-22T04:51:17.865Z,-9.18
2017-01-22T04:51:47.895Z,-9.18
2017-01-22T04:52:17.924Z,-9.16
2017-01-22T04:52:47.946Z,-9.05
2017-01-22T04:53:17.978Z,-9.05
2017-01-22T04:53:48.010Z,-9.05
2017-01-22T04:54:18.039Z,-9.09
2017-01-22T04:54:48.065Z,-9.1
2017-01-22T04:55:18.088Z,-9.18
2017-01-22T04:55:48.108Z,-9.14
2017-01-22T04:56:18.137Z,-9.14
2017-01-22T04:56:48.169Z,-9.07
2017-01-22T04:57:18.195Z,-9.14
2017-01-22T04:57:48.226Z,-9.17
2017-01-22T04:58:18.251Z,-9.1
2017-01-22T04:58:48.281Z,-9.17
2017-01-22T04:59:18.307Z,-9.06
2017-01-22T04:59:48.331Z,-9.12
2017-01-22T05:00:18.353Z,-9.09
2017-01-22T05:00:48.385Z,-9.16
2017-01-22T05:01:18.416Z,-9.1
2017-01-22T05:01:48.444Z,-9.1
2017-01-22T05:02:18.463Z,-9.1
2017-01-22T05:02:48.489Z,-9.1
2017-01-22T05:03:18.519Z,-9.12
2017-01-22T05:03:48.544Z,-9.17
2017-01-22T05:04:18.566Z,-9.12
2017-01-22T05:04:48.595Z,-9.16
2017-01-22T05:05:18.616Z,-9.12
2017-01-22T05:05:48.658Z,-9.1
2017-01-22T05:06:18.681Z,-9.07
2017-01-22T05:06:48.708Z,-9.12
2017-01-22T05:07:18.732Z,-9.1
2017-01-22T05:07:48.811Z,-9.09
2017-01-22T05:08:18.783Z,-9.1
2017-01-22T05:08:48.812Z,-9.18
2017-01-22T05:09:18.862Z,-9.1
2017-01-22T05:09:48.862Z,-9.1
2017-01-22T05:10:18.883Z,-9.07
2017-01-22T05:10:48.912Z,-9.06
2017-01-22T05:11:18.954Z,-9.05
2017-01-22T05:11:48.968Z,-9.09
2017-01-22T05:12:18.999Z,-9.09
2017-01-22T05:12:49.028Z,-9.1
2017-01-22T05:13:19.056Z,-9.12
2017-01-22T05:13:49.081Z,-9.02
2017-01-22T05:14:19.099Z,-8.96
2017-01-22T05:14:49.127Z,-9.02
2017-01-22T05:15:19.161Z,-8.88
2017-01-22T05:15:49.191Z,-9
2017-01-22T05:16:19.204Z,-9.02
2017-01-22T05:16:49.233Z,-8.97
2017-01-22T05:17:19.261Z,-8.97
2017-01-22T05:17:49.292Z,-8.97
2017-01-22T05:18:19.317Z,-8.99
2017-01-22T05:18:49.348Z,-9.05
2017-01-22T05:19:19.374Z,-9
2017-01-22T05:19:49.396Z,-9
2017-01-22T05:20:19.433Z,-8.99
2017-01-22T05:20:49.455Z,-8.92
2017-01-22T05:21:19.477Z,-8.97
2017-01-22T05:21:49.505Z,-8.97
2017-01-22T05:22:19.530Z,-9.03
2017-01-22T05:22:49.558Z,-9.02
2017-01-22T05:23:19.586Z,-9.1
2017-01-22T05:23:49.614Z,-9.03
2017-01-22T05:24:19.641Z,-9.02
2017-01-22T05:24:49.668Z,-9.03
2017-01-22T05:25:19.691Z,-9.09
2017-01-22T05:25:49.717Z,-9.02
2017-01-22T05:26:19.752Z,-9.05
2017-01-22T05:26:49.776Z,-9.06
2017-01-22T05:27:19.803Z,-9.07
2017-01-22T05:27:49.826Z,-9.1
2017-01-22T05:28:19.856Z,-9.07
2017-01-22T05:28:49.882Z,-9.07
2017-01-22T05:29:19.909Z,-9.12
2017-01-22T05:29:49.938Z,-9.16
2017-01-22T05:30:19.953Z,-9.1
2017-01-22T05:30:49.983Z,-9.14
2017-01-22T05:31:20.015Z,-9.09
2017-01-22T05:31:50.041Z,-9.17
2017-01-22T05:32:20.070Z,-9.17
2017-01-22T05:32:50.091Z,-9.16
2017-01-22T05:33:20.123Z,-9.18
2017-01-22T05:33:50.142Z,-9.14
2017-01-22T05:34:20.181Z,-9.14
2017-01-22T05:34:50.202Z,-9.2
2017-01-22T05:35:20.230Z,-9.16
2017-01-22T05:35:50.252Z,-9.18
2017-01-22T05:36:20.282Z,-9.2
2017-01-22T05:36:50.311Z,-9.2
2017-01-22T05:37:20.332Z,-9.18
2017-01-22T05:37:50.394Z,-9.27
2017-01-22T05:38:20.393Z,-9.18
2017-01-22T05:38:50.415Z,-9.21
2017-01-22T05:39:20.440Z,-9.18
2017-01-22T05:39:50.472Z,-9.27
2017-01-22T05:40:20.502Z,-9.2
2017-01-22T05:40:50.516Z,-9.18
2017-01-22T05:41:20.573Z,-9.17
2017-01-22T05:41:50.580Z,-9.2
2017-01-22T05:42:20.599Z,-9.18
2017-01-22T05:42:50.662Z,-9.2
2017-01-22T05:43:20.648Z,-9.18
2017-01-22T05:43:50.682Z,-9.16
2017-01-22T05:44:20.707Z,-9.21
2017-01-22T05:44:50.735Z,-9.23
2017-01-22T05:45:20.761Z,-9.2
2017-01-22T05:45:50.794Z,-9.23
2017-01-22T05:46:20.825Z,-9.18
2017-01-22T05:46:50.843Z,-9.17
2017-01-22T05:47:20.867Z,-9.2
2017-01-22T05:47:50.893Z,-9.23
2017-01-22T05:48:20.923Z,-9.2
2017-01-22T05:48:50.949Z,-9.17
2017-01-22T05:49:20.979Z,-9.2
2017-01-22T05:49:51.009Z,-9.16
2017-01-22T05:50:21.031Z,-9.17
2017-01-22T05:50:51.054Z,-9.16
2017-01-22T05:51:21.083Z,-9.14
2017-01-22T05:51:51.107Z,-9.12
2017-01-22T05:52:21.139Z,-9.06
2017-01-22T05:52:51.163Z,-9.03
2017-01-22T05:53:21.189Z,-9.05
2017-01-22T05:53:51.266Z,-9.05
2017-01-22T05:54:21.237Z,-9.07
2017-01-22T05:54:51.277Z,-8.97
2017-01-22T05:55:21.298Z,-8.88
2017-01-22T05:55:51.327Z,-8.92
2017-01-22T05:56:21.347Z,-8.94
2017-01-22T05:56:51.379Z,-8.91
2017-01-22T05:57:21.403Z,-8.85
2017-01-22T05:57:51.430Z,-8.88
2017-01-22T05:58:21.454Z,-8.86
2017-01-22T05:58:51.484Z,-8.82
2017-01-22T05:59:21.508Z,-8.78
2017-01-22T05:59:51.541Z,-8.81
2017-01-22T06:00:21.572Z,-8.79
2017-01-22T06:00:51.601Z,-8.88
2017-01-22T06:01:21.620Z,-8.76
2017-01-22T06:01:51.641Z,-8.76
2017-01-22T06:02:21.696Z,-8.84
2017-01-22T06:02:51.700Z,-8.81
2017-01-22T06:03:21.724Z,-8.78
2017-01-22T06:03:51.748Z,-8.78
2017-01-22T06:04:21.778Z,-8.84
2017-01-22T06:04:51.807Z,-8.86
2017-01-22T06:05:21.835Z,-8.79
2017-01-22T06:05:51.861Z,-8.78
2017-01-22T06:06:21.888Z,-8.78
2017-01-22T06:06:51.919Z,-8.84
2017-01-22T06:07:21.946Z,-8.74
2017-01-22T06:07:51.977Z,-8.74
2017-01-22T06:08:21.994Z,-8.79
2017-01-22T06:08:52.023Z,-8.88
2017-01-22T06:09:22.046Z,-8.79
2017-01-22T06:09:52.074Z,-8.78
2017-01-22T06:10:22.103Z,-8.85
2017-01-22T06:10:52.135Z,-8.81
2017-01-22T06:11:22.157Z,-8.78
2017-01-22T06:11:52.187Z,-8.81
2017-01-22T06:12:22.216Z,-8.82
2017-01-22T06:12:52.241Z,-8.79
2017-01-22T06:13:22.267Z,-8.84
2017-01-22T06:13:52.287Z,-8.79
2017-01-22T06:14:22.317Z,-8.91
2017-01-22T06:14:52.364Z,-8.88
2017-01-22T06:15:22.404Z,-8.92
2017-01-22T06:15:52.400Z,-8.96
2017-01-22T06:16:22.423Z,-8.99
2017-01-22T06:16:52.455Z,-8.96
2017-01-22T06:17:22.487Z,-8.89
2017-01-22T06:17:52.505Z,-9
2017-01-22T06:18:22.536Z,-8.92
2017-01-22T06:18:52.554Z,-9.05
2017-01-22T06:19:22.591Z,-8.94
2017-01-22T06:19:52.613Z,-9
2017-01-22T06:20:22.637Z,-8.94
2017-01-22T06:20:52.665Z,-8.94
2017-01-22T06:21:22.692Z,-9.07
2017-01-22T06:21:52.728Z,-8.92
2017-01-22T06:22:22.755Z,-9.05
2017-01-22T06:22:52.779Z,-9.12
2017-01-22T06:23:22.806Z,-9.1
2017-01-22T06:23:52.839Z,-9
2017-01-22T06:24:22.853Z,-9.05
2017-01-22T06:24:52.879Z,-9.05
2017-01-22T06:25:22.917Z,-9.03
2017-01-22T06:25:52.934Z,-9.02
2017-01-22T06:26:22.964Z,-9.05
2017-01-22T06:26:52.993Z,-8.92
2017-01-22T06:27:23.040Z,-9
2017-01-22T06:27:53.043Z,-8.89
2017-01-22T06:28:23.075Z,-8.89